หน้าหลัก
METAR-TAF:

METAR-TAF

ท่าอากาศยาน :

Ciudad Juárez, เม็กซิโก

ละติจูด: 31-38N, ลองจิจูด: 106-26W, ความสูง: 1171 ม.

การสังเกตสภาพอากาศปัจจุบัน

รายงานได้ทำขึ้นเมื่อ 57 นาทีที่แล้ว ณ เวลา 13:42 UTC
ลม 9 นอตจากตะวันตกเฉียงใต้
อุณหภูมิ 28°C
ความชื้น 17%
ความกดอากาศ 1011 hPa
ทัศนวิสัย: 16.1 กม.
ท้องฟ้าแจ่มใส

METAR: MMCS 181342Z 23009KT 10SM SKC 28/01 A2986

เวลา: 08:39 (14:39 UTC)

การพยากรณ์

รายงานได้ทำขึ้นเมื่อ 9 ชั่วโมงและ 49 นาทีที่แล้ว ณ เวลา 04:50 UTC
การพยากรณ์มีผลตั้งแต่วันที่ 18 ณ เวลา 06 UTC จนถึงวันที่ 19 ณ เวลา 06 UTC
ลม 5 นอตจากตะวันตก/ตะวันตกเฉียงใต้
ทัศนวิสัย: 10 กม.
ท้องฟ้าแจ่มใส
จาก 18 ณ เวลา 1500 UTC
ลม 15 นอตจากตะวันตก/ตะวันตกเฉียงใต้
ทัศนวิสัย: 10 กม.
ท้องฟ้าแจ่มใส
ชั่วคราว
ตั้งแต่วันที่ 18 ณ เวลา 20 UTC จนถึงวันที่ 18 ณ เวลา 24 UTC
ลม 10 นอตจากตะวันตก/ตะวันตกเฉียงใต้โดยมีลมกระโชกได้ถึง20 นอต
จาก 19 ณ เวลา 0300 UTC
ลม 10 นอตจากตะวันตก/ตะวันตกเฉียงใต้
ทัศนวิสัย: 10 กม.
ท้องฟ้าแจ่มใส

TAF: MMCS 180450Z 1806/1906 24005KT P6SM SKC FM181500 24015KT P6SM SKC TEMPO 1820/1824 24010G20KT FM190300 24010KT P6SM SKC

สังเกตการณ์สภาพอากาศและพยากรณ์อากาศของสนามบินมากกว่า 4000 แห่ง (รายงาน METAR และ TAF).

สถานีที่ดูได้จะแสดงไว้ด้วยจุดสีเหลืองและสีแดงบนแผนที่.

เลื่อนเมาส์ไปเหนือจุดเพื่อดูชื่อสถานี.

แล้วคลิกเพื่อดูสังเกตการณ์และการพยากรณ์สภาพอากาศ.

ในการเปลี่ยนแผนที่: คลิกที่ปุ่มสีเขียวที่มีกากบาทสีดำเพื่อซูมเข้า; ที่ปุ่มสีเขียวที่มีขีดเพื่อซูมออก; หรือที่ลูกศรสีเขียวเพื่อไปยังแผนที่ที่อยู่ติดกัน.


METAR-TAF: